createdAt,value
2022-11-27T00:00:09.038Z,8.77
2022-11-27T00:02:55.555Z,8.80
2022-11-27T00:05:52.819Z,9.30
2022-11-27T00:08:39.277Z,8.87
2022-11-27T00:11:27.866Z,9.27
2022-11-27T00:14:16.157Z,8.80
2022-11-27T00:17:02.590Z,9.03
2022-11-27T00:19:49.444Z,8.73
2022-11-27T00:22:37.815Z,9.30
2022-11-27T00:25:24.415Z,8.73
2022-11-27T00:28:10.798Z,9.63
2022-11-27T00:30:59.759Z,9.00
2022-11-27T00:33:47.407Z,8.97
2022-11-27T00:36:35.385Z,8.67
2022-11-27T00:39:23.100Z,9.17
2022-11-27T00:42:09.741Z,9.13
2022-11-27T00:44:56.227Z,9.50
2022-11-27T00:47:42.716Z,8.90
2022-11-27T00:50:31.847Z,9.30
2022-11-27T00:53:18.588Z,9.57
2022-11-27T00:56:06.929Z,9.00
2022-11-27T00:58:54.144Z,10.47
2022-11-27T01:01:42.666Z,9.57
2022-11-27T01:04:30.344Z,9.43
2022-11-27T01:07:16.960Z,9.20
2022-11-27T01:10:03.964Z,9.47
2022-11-27T01:12:51.876Z,9.77
2022-11-27T01:15:38.647Z,8.10
2022-11-27T01:18:25.065Z,8.00
2022-11-27T01:21:13.390Z,8.57
2022-11-27T01:24:00.682Z,7.97
2022-11-27T01:26:47.250Z,7.33
2022-11-27T01:29:35.335Z,7.07
2022-11-27T01:32:22.126Z,6.97
2022-11-27T01:35:09.835Z,6.47
2022-11-27T01:37:56.347Z,6.83
2022-11-27T01:40:43.066Z,6.57
2022-11-27T01:43:41.020Z,7.00
2022-11-27T01:46:37.410Z,6.60
2022-11-27T01:49:30.345Z,5.93
2022-11-27T01:52:20.893Z,5.90
2022-11-27T01:55:13.250Z,5.47
2022-11-27T01:58:02.908Z,5.87
2022-11-27T02:00:49.531Z,6.10
2022-11-27T02:03:38.110Z,5.53
2022-11-27T02:06:25.426Z,5.57
2022-11-27T02:09:12.163Z,6.07
2022-11-27T02:12:06.987Z,5.83
2022-11-27T02:15:02.026Z,5.63
2022-11-27T02:17:54.657Z,6.10
2022-11-27T02:20:50.012Z,5.73
2022-11-27T02:24:31.292Z,5.37
2022-11-27T02:27:33.641Z,5.40
2022-11-27T02:30:21.633Z,5.77
2022-11-27T02:33:12.172Z,5.17
2022-11-27T02:36:04.792Z,6.10
2022-11-27T02:38:54.859Z,5.27
2022-11-27T02:41:49.580Z,5.53
2022-11-27T02:44:40.301Z,5.80
2022-11-27T02:47:31.184Z,5.60
2022-11-27T02:50:21.751Z,6.17
2022-11-27T02:53:13.363Z,5.97
2022-11-27T02:56:01.586Z,5.87
2022-11-27T02:58:50.111Z,6.60
2022-11-27T03:01:42.584Z,6.53
2022-11-27T03:04:34.780Z,6.10
2022-11-27T03:07:26.759Z,5.90
2022-11-27T03:10:19.956Z,6.07
2022-11-27T03:13:06.775Z,5.67
2022-11-27T03:16:00.658Z,5.80
2022-11-27T03:18:55.717Z,6.00
2022-11-27T03:21:46.361Z,6.67
2022-11-27T03:24:35.856Z,5.37
2022-11-27T03:27:27.891Z,5.93
2022-11-27T03:30:15.459Z,5.73
2022-11-27T03:33:03.235Z,6.10
2022-11-27T03:35:49.727Z,6.27
2022-11-27T03:38:37.610Z,6.33
2022-11-27T03:41:33.435Z,6.30
2022-11-27T03:44:27.459Z,6.40
2022-11-27T03:47:23.614Z,7.17
2022-11-27T03:50:22.675Z,6.17
2022-11-27T03:53:16.375Z,6.37
2022-11-27T03:56:13.042Z,5.90
2022-11-27T03:59:03.987Z,6.10
2022-11-27T04:01:50.733Z,6.77
2022-11-27T04:04:37.644Z,6.13
2022-11-27T04:07:24.603Z,6.50
2022-11-27T04:10:12.718Z,6.43
2022-11-27T04:13:00.391Z,6.37
2022-11-27T04:15:47.125Z,6.20
2022-11-27T04:18:33.764Z,6.70
2022-11-27T04:21:20.589Z,6.07
2022-11-27T04:24:07.704Z,6.57
2022-11-27T04:26:54.202Z,6.30
2022-11-27T04:29:42.018Z,6.10
2022-11-27T04:32:28.630Z,7.33
2022-11-27T04:35:15.526Z,7.23
2022-11-27T04:38:01.980Z,6.90
2022-11-27T04:40:48.955Z,7.00
2022-11-27T04:43:35.743Z,6.60
2022-11-27T04:46:23.739Z,6.90
2022-11-27T04:49:11.211Z,6.67
2022-11-27T04:51:57.728Z,6.80
2022-11-27T04:54:44.456Z,6.90
2022-11-27T04:57:30.880Z,6.70
2022-11-27T05:00:17.893Z,6.83
2022-11-27T05:03:05.932Z,6.83
2022-11-27T05:05:56.919Z,6.70
2022-11-27T05:08:43.553Z,6.53
2022-11-27T05:11:30.838Z,6.47
2022-11-27T05:14:18.197Z,6.60
2022-11-27T05:17:05.443Z,6.30
2022-11-27T05:19:53.124Z,6.80
2022-11-27T05:22:39.949Z,6.70
2022-11-27T05:25:26.970Z,6.20
2022-11-27T05:28:13.526Z,6.63
2022-11-27T05:30:59.936Z,7.17
2022-11-27T05:33:46.487Z,6.50
2022-11-27T05:36:36.178Z,6.37
2022-11-27T05:39:22.840Z,7.10
2022-11-27T05:42:09.532Z,6.30
2022-11-27T05:44:58.524Z,6.90
2022-11-27T05:47:45.674Z,6.50
2022-11-27T05:50:32.190Z,6.47
2022-11-27T05:53:20.145Z,6.13
2022-11-27T05:56:09.129Z,6.40
2022-11-27T05:58:55.492Z,5.57
2022-11-27T06:01:42.072Z,6.20
2022-11-27T06:04:29.137Z,5.70
2022-11-27T06:07:15.576Z,6.50
2022-11-27T06:10:03.854Z,7.03
2022-11-27T06:12:50.555Z,6.87
2022-11-27T06:15:37.949Z,6.67
2022-11-27T06:18:24.348Z,6.37
2022-11-27T06:21:12.777Z,6.13
2022-11-27T06:23:59.476Z,6.03
2022-11-27T06:26:47.631Z,5.90
2022-11-27T06:29:34.308Z,5.83
2022-11-27T06:32:20.903Z,6.00
2022-11-27T06:35:08.380Z,6.20
2022-11-27T06:37:55.075Z,5.90
2022-11-27T06:40:41.610Z,6.40
2022-11-27T06:43:29.399Z,6.57
2022-11-27T06:46:18.106Z,6.40
2022-11-27T06:49:04.853Z,6.27
2022-11-27T06:51:51.520Z,6.10
2022-11-27T06:54:38.244Z,6.50
2022-11-27T06:57:25.130Z,5.50
2022-11-27T07:00:14.244Z,5.90
2022-11-27T07:03:00.683Z,5.30
2022-11-27T07:05:47.228Z,5.83
2022-11-27T07:08:34.573Z,6.20
2022-11-27T07:11:23.423Z,5.63
2022-11-27T07:14:11.078Z,6.17
2022-11-27T07:16:59.092Z,6.00
2022-11-27T07:19:45.920Z,5.70
2022-11-27T07:22:33.587Z,5.67
2022-11-27T07:25:20.331Z,6.00
2022-11-27T07:28:06.877Z,5.50
2022-11-27T07:30:56.690Z,5.30
2022-11-27T07:33:44.627Z,6.53
2022-11-27T07:36:32.197Z,5.93
2022-11-27T07:39:28.744Z,5.93
2022-11-27T07:42:40.901Z,5.17
2022-11-27T07:45:27.886Z,5.37
2022-11-27T07:48:14.971Z,5.90
2022-11-27T07:51:02.949Z,5.80
2022-11-27T07:53:51.800Z,6.30
2022-11-27T07:56:38.439Z,5.10
2022-11-27T07:59:25.035Z,5.27
2022-11-27T08:02:13.284Z,5.20
2022-11-27T08:04:59.846Z,5.20
2022-11-27T08:07:48.254Z,5.87
2022-11-27T08:10:36.624Z,5.40
2022-11-27T08:13:23.515Z,5.03
2022-11-27T08:16:10.326Z,5.03
2022-11-27T08:18:57.037Z,5.70
2022-11-27T08:21:43.843Z,5.23
2022-11-27T08:24:31.783Z,5.20
2022-11-27T08:27:18.659Z,5.50
2022-11-27T08:30:07.621Z,5.67
2022-11-27T08:32:54.294Z,5.87
2022-11-27T08:35:40.623Z,4.77
2022-11-27T08:38:27.607Z,5.50
2022-11-27T08:41:15.494Z,5.10
2022-11-27T08:44:04.532Z,5.07
2022-11-27T08:46:53.335Z,4.90
2022-11-27T08:49:44.896Z,5.30
2022-11-27T08:52:33.411Z,4.87
2022-11-27T08:55:20.073Z,5.50
2022-11-27T08:58:08.501Z,5.00
2022-11-27T09:00:54.958Z,5.10
2022-11-27T09:03:41.959Z,5.30
2022-11-27T09:06:31.183Z,5.17
2022-11-27T09:09:18.303Z,4.50
2022-11-27T09:12:05.301Z,5.33
2022-11-27T09:14:53.258Z,4.37
2022-11-27T09:17:40.138Z,4.93
2022-11-27T09:20:27.045Z,4.67
2022-11-27T09:23:14.660Z,5.00
2022-11-27T09:26:01.264Z,5.33
2022-11-27T09:28:47.956Z,4.93
2022-11-27T09:31:35.893Z,4.53
2022-11-27T09:34:22.630Z,4.80
2022-11-27T09:37:09.218Z,4.43
2022-11-27T09:39:56.332Z,4.97
2022-11-27T09:42:49.610Z,4.73
2022-11-27T09:45:38.557Z,5.03
2022-11-27T09:48:35.927Z,4.17
2022-11-27T09:51:29.083Z,4.70
2022-11-27T09:54:20.770Z,4.50
2022-11-27T09:57:07.538Z,4.77
2022-11-27T09:59:55.595Z,5.40
2022-11-27T10:02:43.987Z,5.17
2022-11-27T10:05:39.244Z,4.90
2022-11-27T10:08:33.417Z,4.83
2022-11-27T10:11:27.271Z,4.07
2022-11-27T10:14:30.818Z,5.40
2022-11-27T10:17:21.609Z,4.87
2022-11-27T10:20:19.884Z,4.97
2022-11-27T10:23:19.305Z,4.63
2022-11-27T10:26:12.871Z,4.30
2022-11-27T10:29:05.371Z,4.87
2022-11-27T10:31:57.390Z,5.20
2022-11-27T10:34:48.463Z,4.47
2022-11-27T10:37:40.597Z,5.50
2022-11-27T10:40:33.324Z,4.20
2022-11-27T10:43:21.067Z,4.27
2022-11-27T10:46:14.838Z,4.50
2022-11-27T10:49:01.896Z,4.67
2022-11-27T10:51:48.442Z,4.07
2022-11-27T10:54:39.498Z,4.20
2022-11-27T10:57:47.476Z,4.43
2022-11-27T11:00:34.152Z,3.87
2022-11-27T11:03:20.721Z,4.33
2022-11-27T11:06:20.781Z,3.73
2022-11-27T11:09:15.606Z,3.33
2022-11-27T11:12:08.749Z,4.13
2022-11-27T11:14:59.108Z,4.20
2022-11-27T11:17:45.584Z,3.80
2022-11-27T11:20:32.117Z,3.53
2022-11-27T11:23:24.294Z,3.97
2022-11-27T11:26:25.198Z,4.00
2022-11-27T11:29:26.744Z,3.63
2022-11-27T11:32:18.012Z,3.90
2022-11-27T11:35:09.520Z,4.10
2022-11-27T11:37:57.158Z,3.67
2022-11-27T11:40:46.722Z,3.80
2022-11-27T11:43:35.747Z,3.73
2022-11-27T11:46:25.011Z,4.10
2022-11-27T11:49:24.127Z,4.23
2022-11-27T11:52:22.020Z,4.17
2022-11-27T11:55:18.693Z,3.80
2022-11-27T11:58:31.247Z,3.30
2022-11-27T12:01:31.927Z,4.33
2022-11-27T12:04:42.833Z,3.57
2022-11-27T12:07:51.783Z,3.80
2022-11-27T12:10:50.883Z,4.20
2022-11-27T12:13:49.976Z,3.63
2022-11-27T12:16:48.417Z,3.97
2022-11-27T12:19:56.323Z,3.87
2022-11-27T12:23:07.555Z,3.63
2022-11-27T12:26:04.949Z,3.73
2022-11-27T12:29:10.783Z,4.13
2022-11-27T12:32:10.564Z,3.33
2022-11-27T12:35:16.636Z,3.80
2022-11-27T12:38:33.199Z,3.23
2022-11-27T12:41:39.947Z,3.87
2022-11-27T12:44:34.969Z,4.03
2022-11-27T12:47:29.187Z,3.43
2022-11-27T12:50:23.383Z,3.87
2022-11-27T12:53:20.145Z,3.60
2022-11-27T12:56:17.112Z,3.43
2022-11-27T12:59:12.639Z,3.10
2022-11-27T13:02:07.194Z,3.53
2022-11-27T13:04:58.816Z,3.07
2022-11-27T13:07:53.458Z,3.20
2022-11-27T13:10:43.433Z,2.83
2022-11-27T13:13:35.122Z,3.13
2022-11-27T13:16:27.553Z,3.20
2022-11-27T13:19:23.947Z,2.87
2022-11-27T13:22:14.778Z,3.50
2022-11-27T13:25:04.993Z,3.00
2022-11-27T13:27:54.099Z,3.67
2022-11-27T13:30:41.468Z,3.27
2022-11-27T13:33:36.183Z,2.70
2022-11-27T13:36:26.875Z,2.60
2022-11-27T13:39:25.194Z,2.57
2022-11-27T13:42:21.232Z,2.20
2022-11-27T13:45:11.454Z,2.73
2022-11-27T13:47:59.729Z,2.73
2022-11-27T13:50:46.936Z,2.70
2022-11-27T13:53:35.607Z,2.60
2022-11-27T13:56:32.454Z,2.53
2022-11-27T13:59:23.345Z,2.40
2022-11-27T14:02:11.127Z,2.47
2022-11-27T14:04:58.522Z,2.23
2022-11-27T14:07:48.963Z,2.40
2022-11-27T14:10:36.064Z,2.37
2022-11-27T14:13:27.559Z,2.33
2022-11-27T14:16:26.581Z,2.47
2022-11-27T14:19:33.573Z,2.27
2022-11-27T14:22:48.471Z,2.30
2022-11-27T14:25:42.919Z,2.10
2022-11-27T14:31:05.849Z,1.83
2022-11-27T14:34:14.326Z,2.53
2022-11-27T14:36:26.385Z,2.00
2022-11-27T14:39:23.309Z,2.00
2022-11-27T14:42:26.310Z,2.17
2022-11-27T14:45:17.914Z,2.07
2022-11-27T14:48:05.037Z,2.10
2022-11-27T14:50:55.136Z,2.10
2022-11-27T14:53:42.208Z,2.13
2022-11-27T14:56:31.405Z,1.80
2022-11-27T14:59:20.578Z,2.30
2022-11-27T15:02:21.423Z,2.00
2022-11-27T15:05:20.276Z,1.83
2022-11-27T15:08:11.353Z,1.97
2022-11-27T15:11:00.270Z,2.50
2022-11-27T15:13:53.976Z,2.00
2022-11-27T15:16:47.033Z,2.43
2022-11-27T15:19:37.599Z,6.47
2022-11-27T15:22:24.879Z,2.10
2022-11-27T15:25:30.967Z,1.87
2022-11-27T15:28:51.046Z,1.97
2022-11-27T15:31:39.066Z,2.40
2022-11-27T15:34:25.927Z,2.27
2022-11-27T15:37:23.579Z,2.30
2022-11-27T15:40:28.728Z,1.83
2022-11-27T15:43:17.110Z,4.37
2022-11-27T15:46:08.522Z,2.00
2022-11-27T15:48:55.148Z,2.90
2022-11-27T15:51:41.775Z,3.03
2022-11-27T15:54:28.208Z,2.30
2022-11-27T15:57:16.028Z,2.53
2022-11-27T16:00:04.067Z,2.30
2022-11-27T16:02:52.482Z,1.60
2022-11-27T16:05:39.329Z,2.00
2022-11-27T16:08:25.777Z,1.90
2022-11-27T16:11:14.333Z,1.63
2022-11-27T16:14:02.187Z,2.50
2022-11-27T16:16:49.046Z,2.03
2022-11-27T16:19:36.493Z,2.13
2022-11-27T16:22:23.420Z,2.40
2022-11-27T16:25:10.531Z,4.33
2022-11-27T16:28:02.457Z,2.70
2022-11-27T16:30:53.167Z,1.77
2022-11-27T16:33:40.039Z,2.40
2022-11-27T16:36:26.796Z,2.00
2022-11-27T16:39:13.708Z,1.70
2022-11-27T16:42:00.380Z,2.00
2022-11-27T16:44:47.530Z,1.77
2022-11-27T16:47:35.307Z,2.63
2022-11-27T16:50:21.993Z,1.60
2022-11-27T16:53:08.557Z,1.70
2022-11-27T16:55:55.167Z,1.60
2022-11-27T16:58:43.622Z,1.67
2022-11-27T17:01:32.083Z,1.80
2022-11-27T17:04:21.304Z,1.53
2022-11-27T17:07:07.786Z,1.80
2022-11-27T17:09:54.431Z,1.57
2022-11-27T17:12:40.987Z,2.03
2022-11-27T17:15:27.505Z,1.57
2022-11-27T17:18:14.138Z,2.03
2022-11-27T17:21:08.036Z,1.97
2022-11-27T17:23:58.313Z,1.70
2022-11-27T17:26:45.814Z,2.07
2022-11-27T17:29:33.902Z,1.87
2022-11-27T17:32:20.711Z,1.70
2022-11-27T17:35:07.989Z,2.10
2022-11-27T17:37:56.335Z,1.70
2022-11-27T17:40:43.085Z,1.90
2022-11-27T17:43:30.525Z,2.10
2022-11-27T17:46:19.793Z,1.40
2022-11-27T17:49:08.189Z,1.63
2022-11-27T17:51:54.726Z,2.20
2022-11-27T17:54:42.518Z,1.77
2022-11-27T17:57:29.366Z,2.03
2022-11-27T18:00:17.050Z,1.53
2022-11-27T18:03:07.345Z,1.80
2022-11-27T18:05:54.491Z,1.37
2022-11-27T18:08:41.060Z,1.67
2022-11-27T18:11:31.685Z,1.60
2022-11-27T18:14:18.327Z,1.70
2022-11-27T18:17:07.084Z,1.70
2022-11-27T18:19:53.867Z,1.33
2022-11-27T18:22:40.588Z,1.70
2022-11-27T18:25:27.136Z,1.73
2022-11-27T18:28:15.643Z,1.70
2022-11-27T18:31:06.583Z,1.53
2022-11-27T18:33:53.332Z,1.53
2022-11-27T18:36:40.171Z,1.53
2022-11-27T18:39:26.905Z,1.90
2022-11-27T18:42:15.160Z,1.57
2022-11-27T18:45:03.842Z,2.33
2022-11-27T18:47:50.620Z,1.60
2022-11-27T18:50:37.391Z,1.40
2022-11-27T18:53:24.096Z,2.90
2022-11-27T18:56:13.281Z,1.63
2022-11-27T18:59:03.020Z,1.73
2022-11-27T19:01:51.292Z,1.70
2022-11-27T19:04:39.460Z,1.87
2022-11-27T19:07:28.136Z,1.60
2022-11-27T19:10:14.901Z,1.70
2022-11-27T19:13:01.395Z,1.50
2022-11-27T19:15:48.977Z,1.80
2022-11-27T19:18:37.613Z,1.50
2022-11-27T19:21:26.282Z,1.70
2022-11-27T19:24:12.879Z,1.97
2022-11-27T19:26:59.389Z,1.80
2022-11-27T19:29:46.008Z,2.07
2022-11-27T19:32:33.069Z,1.80
2022-11-27T19:35:25.130Z,1.60
2022-11-27T19:38:11.848Z,1.90
2022-11-27T19:40:58.367Z,2.07
2022-11-27T19:43:45.200Z,1.63
2022-11-27T19:46:33.416Z,1.70
2022-11-27T19:49:21.345Z,2.20
2022-11-27T19:52:09.715Z,1.73
2022-11-27T19:54:56.415Z,1.87
2022-11-27T19:57:42.820Z,2.10
2022-11-27T20:00:29.720Z,2.57
2022-11-27T20:03:16.564Z,1.63
2022-11-27T20:06:04.613Z,1.70
2022-11-27T20:08:54.140Z,1.90
2022-11-27T20:11:40.930Z,1.97
2022-11-27T20:14:27.698Z,1.90
2022-11-27T20:17:14.515Z,2.10
2022-11-27T20:20:01.245Z,1.77
2022-11-27T20:22:48.201Z,1.67
2022-11-27T20:25:36.504Z,1.90
2022-11-27T20:28:23.257Z,2.10
2022-11-27T20:31:15.542Z,1.73
2022-11-27T20:34:04.913Z,1.57
2022-11-27T20:36:51.667Z,2.77
2022-11-27T20:39:38.159Z,2.17
2022-11-27T20:42:26.058Z,1.90
2022-11-27T20:45:17.518Z,2.13
2022-11-27T20:48:07.322Z,2.03
2022-11-27T20:50:54.170Z,1.80
2022-11-27T20:53:41.184Z,2.17
2022-11-27T20:56:28.664Z,2.20
2022-11-27T20:59:16.669Z,1.97
2022-11-27T21:02:05.394Z,1.83
2022-11-27T21:04:52.272Z,1.97
2022-11-27T21:07:39.583Z,1.87
2022-11-27T21:10:26.313Z,2.27
2022-11-27T21:13:12.847Z,2.00
2022-11-27T21:16:00.891Z,1.70
2022-11-27T21:18:47.733Z,1.77
2022-11-27T21:21:35.186Z,2.10
2022-11-27T21:24:22.879Z,2.00
2022-11-27T21:27:10.013Z,2.10
2022-11-27T21:29:56.681Z,2.20
2022-11-27T21:32:45.381Z,1.80
2022-11-27T21:35:33.987Z,1.80
2022-11-27T21:38:24.044Z,2.10
2022-11-27T21:41:13.711Z,1.80
2022-11-27T21:44:02.076Z,2.13
2022-11-27T21:46:48.847Z,1.80
2022-11-27T21:49:36.742Z,2.37
2022-11-27T21:52:23.563Z,2.40
2022-11-27T21:55:12.137Z,1.97
2022-11-27T21:57:59.495Z,2.03
2022-11-27T22:00:46.556Z,2.40
2022-11-27T22:03:33.382Z,2.20
2022-11-27T22:06:21.665Z,2.50
2022-11-27T22:09:14.710Z,2.60
2022-11-27T22:12:02.311Z,2.17
2022-11-27T22:14:50.804Z,2.90
2022-11-27T22:17:37.513Z,2.60
2022-11-27T22:20:24.265Z,3.10
2022-11-27T22:23:12.370Z,2.33
2022-11-27T22:26:01.823Z,2.50
2022-11-27T22:28:48.927Z,2.50
2022-11-27T22:31:35.343Z,2.53
2022-11-27T22:34:21.890Z,2.93
2022-11-27T22:37:08.740Z,2.60
2022-11-27T22:39:56.824Z,3.20
2022-11-27T22:42:43.549Z,2.80
2022-11-27T22:45:30.237Z,2.83
2022-11-27T22:48:16.628Z,2.53
2022-11-27T22:51:03.113Z,2.50
2022-11-27T22:53:49.696Z,2.40
2022-11-27T22:56:37.744Z,2.40
2022-11-27T22:59:33.217Z,2.80
2022-11-27T23:02:20.543Z,2.30
2022-11-27T23:05:07.803Z,2.13
2022-11-27T23:07:54.378Z,2.43
2022-11-27T23:10:41.243Z,2.37
2022-11-27T23:13:29.023Z,2.60
2022-11-27T23:16:16.016Z,2.30
2022-11-27T23:19:02.721Z,2.53
2022-11-27T23:21:49.183Z,2.40
2022-11-27T23:24:35.714Z,2.60
2022-11-27T23:27:22.217Z,3.03
2022-11-27T23:30:11.286Z,2.07
2022-11-27T23:32:57.680Z,2.80
2022-11-27T23:35:44.095Z,2.20
2022-11-27T23:38:31.502Z,2.50
2022-11-27T23:41:20.573Z,2.50
2022-11-27T23:44:07.067Z,2.40
2022-11-27T23:46:54.881Z,2.37
2022-11-27T23:49:43.210Z,2.00
2022-11-27T23:52:29.826Z,2.07
2022-11-27T23:55:16.533Z,2.20
2022-11-27T23:58:03.370Z,2.10
